sensor_id;sensor_type;location;lat;lon;timestamp;temperature;humidity
20487;DHT22;10402;49.012;8.370;2023-07-20T00:01:02;23.20;48.50
20487;DHT22;10402;49.012;8.370;2023-07-20T00:03:27;23.20;48.60
20487;DHT22;10402;49.012;8.370;2023-07-20T00:05:53;23.10;48.80
20487;DHT22;10402;49.012;8.370;2023-07-20T00:08:18;23.10;48.70
20487;DHT22;10402;49.012;8.370;2023-07-20T00:10:44;23.00;48.80
20487;DHT22;10402;49.012;8.370;2023-07-20T00:13:11;22.90;48.80
20487;DHT22;10402;49.012;8.370;2023-07-20T00:15:37;23.00;49.00
20487;DHT22;10402;49.012;8.370;2023-07-20T00:18:06;22.90;49.00
20487;DHT22;10402;49.012;8.370;2023-07-20T00:20:31;22.90;49.10
20487;DHT22;10402;49.012;8.370;2023-07-20T00:22:57;22.90;49.30
20487;DHT22;10402;49.012;8.370;2023-07-20T00:25:24;22.90;49.40
20487;DHT22;10402;49.012;8.370;2023-07-20T00:27:50;22.80;49.40
20487;DHT22;10402;49.012;8.370;2023-07-20T00:30:15;22.80;49.60
20487;DHT22;10402;49.012;8.370;2023-07-20T00:32:43;22.80;49.60
20487;DHT22;10402;49.012;8.370;2023-07-20T00:35:09;22.80;49.80
20487;DHT22;10402;49.012;8.370;2023-07-20T00:37:34;22.70;49.70
20487;DHT22;10402;49.012;8.370;2023-07-20T00:40:00;22.70;49.80
20487;DHT22;10402;49.012;8.370;2023-07-20T00:42:26;22.70;49.90
20487;DHT22;10402;49.012;8.370;2023-07-20T00:44:51;22.60;50.00
20487;DHT22;10402;49.012;8.370;2023-07-20T00:47:17;22.60;50.20
20487;DHT22;10402;49.012;8.370;2023-07-20T00:49:43;22.50;50.30
20487;DHT22;10402;49.012;8.370;2023-07-20T00:52:10;22.50;50.40
20487;DHT22;10402;49.012;8.370;2023-07-20T00:54:38;22.40;50.50
20487;DHT22;10402;49.012;8.370;2023-07-20T00:57:05;22.40;50.60
20487;DHT22;10402;49.012;8.370;2023-07-20T00:59:32;22.40;50.70
20487;DHT22;10402;49.012;8.370;2023-07-20T01:01:58;22.40;50.80
20487;DHT22;10402;49.012;8.370;2023-07-20T01:04:23;22.30;50.80
20487;DHT22;10402;49.012;8.370;2023-07-20T01:07:00;22.30;51.10
20487;DHT22;10402;49.012;8.370;2023-07-20T01:09:34;22.30;51.20
20487;DHT22;10402;49.012;8.370;2023-07-20T01:12:07;22.20;51.20
20487;DHT22;10402;49.012;8.370;2023-07-20T01:14:34;22.20;51.30
20487;DHT22;10402;49.012;8.370;2023-07-20T01:17:00;22.20;51.30
20487;DHT22;10402;49.012;8.370;2023-07-20T01:19:25;22.10;51.40
20487;DHT22;10402;49.012;8.370;2023-07-20T01:21:57;22.10;51.60
20487;DHT22;10402;49.012;8.370;2023-07-20T01:24:42;22.10;51.70
20487;DHT22;10402;49.012;8.370;2023-07-20T01:32:40;22.00;52.20
20487;DHT22;10402;49.012;8.370;2023-07-20T01:35:06;21.90;52.30
20487;DHT22;10402;49.012;8.370;2023-07-20T01:37:34;21.80;52.30
20487;DHT22;10402;49.012;8.370;2023-07-20T01:40:00;21.70;52.70
20487;DHT22;10402;49.012;8.370;2023-07-20T01:42:26;21.60;52.90
20487;DHT22;10402;49.012;8.370;2023-07-20T01:44:52;21.50;53.00
20487;DHT22;10402;49.012;8.370;2023-07-20T01:47:19;21.50;53.20
20487;DHT22;10402;49.012;8.370;2023-07-20T01:49:44;21.50;53.50
20487;DHT22;10402;49.012;8.370;2023-07-20T01:52:10;21.50;53.60
20487;DHT22;10402;49.012;8.370;2023-07-20T01:54:35;21.50;53.70
20487;DHT22;10402;49.012;8.370;2023-07-20T01:57:01;21.40;53.70
20487;DHT22;10402;49.012;8.370;2023-07-20T01:59:27;21.40;53.90
20487;DHT22;10402;49.012;8.370;2023-07-20T02:01:52;21.30;54.00
20487;DHT22;10402;49.012;8.370;2023-07-20T02:04:18;21.30;54.20
20487;DHT22;10402;49.012;8.370;2023-07-20T02:06:43;21.30;54.30
20487;DHT22;10402;49.012;8.370;2023-07-20T02:09:09;21.20;54.30
20487;DHT22;10402;49.012;8.370;2023-07-20T02:11:34;21.20;54.50
20487;DHT22;10402;49.012;8.370;2023-07-20T02:14:00;21.20;54.60
20487;DHT22;10402;49.012;8.370;2023-07-20T02:16:26;21.10;54.60
20487;DHT22;10402;49.012;8.370;2023-07-20T02:18:52;21.10;54.70
20487;DHT22;10402;49.012;8.370;2023-07-20T02:21:18;21.00;54.80
20487;DHT22;10402;49.012;8.370;2023-07-20T02:23:43;21.00;54.90
20487;DHT22;10402;49.012;8.370;2023-07-20T02:26:09;21.00;55.00
20487;DHT22;10402;49.012;8.370;2023-07-20T02:28:34;20.90;55.00
20487;DHT22;10402;49.012;8.370;2023-07-20T02:31:00;20.90;55.10
20487;DHT22;10402;49.012;8.370;2023-07-20T02:33:26;20.90;55.20
20487;DHT22;10402;49.012;8.370;2023-07-20T02:35:52;20.90;55.30
20487;DHT22;10402;49.012;8.370;2023-07-20T02:38:17;20.80;55.30
20487;DHT22;10402;49.012;8.370;2023-07-20T02:40:43;20.80;55.30
20487;DHT22;10402;49.012;8.370;2023-07-20T02:43:09;20.80;55.40
20487;DHT22;10402;49.012;8.370;2023-07-20T02:45:35;20.80;55.40
20487;DHT22;10402;49.012;8.370;2023-07-20T02:48:00;20.70;55.60
20487;DHT22;10402;49.012;8.370;2023-07-20T02:50:26;20.70;55.80
20487;DHT22;10402;49.012;8.370;2023-07-20T02:52:51;20.70;56.00
20487;DHT22;10402;49.012;8.370;2023-07-20T02:55:17;20.70;56.00
20487;DHT22;10402;49.012;8.370;2023-07-20T02:57:43;20.70;56.10
20487;DHT22;10402;49.012;8.370;2023-07-20T03:00:09;20.70;56.20
20487;DHT22;10402;49.012;8.370;2023-07-20T03:02:34;20.70;56.20
20487;DHT22;10402;49.012;8.370;2023-07-20T03:05:00;20.70;56.20
20487;DHT22;10402;49.012;8.370;2023-07-20T03:07:27;20.70;56.30
20487;DHT22;10402;49.012;8.370;2023-07-20T03:09:53;20.70;56.30
20487;DHT22;10402;49.012;8.370;2023-07-20T03:12:20;20.70;56.40
20487;DHT22;10402;49.012;8.370;2023-07-20T03:14:46;20.70;56.60
20487;DHT22;10402;49.012;8.370;2023-07-20T03:17:11;20.70;56.70
20487;DHT22;10402;49.012;8.370;2023-07-20T03:19:37;20.70;56.90
20487;DHT22;10402;49.012;8.370;2023-07-20T03:22:02;20.60;56.90
20487;DHT22;10402;49.012;8.370;2023-07-20T03:24:28;20.60;56.90
20487;DHT22;10402;49.012;8.370;2023-07-20T03:26:53;20.50;57.00
20487;DHT22;10402;49.012;8.370;2023-07-20T03:29:19;20.50;57.00
20487;DHT22;10402;49.012;8.370;2023-07-20T03:31:45;20.50;57.10
20487;DHT22;10402;49.012;8.370;2023-07-20T03:34:10;20.50;57.20
20487;DHT22;10402;49.012;8.370;2023-07-20T03:36:36;20.50;57.30
20487;DHT22;10402;49.012;8.370;2023-07-20T03:39:01;20.50;57.40
20487;DHT22;10402;49.012;8.370;2023-07-20T03:41:28;20.50;57.40
20487;DHT22;10402;49.012;8.370;2023-07-20T03:43:54;20.50;57.40
20487;DHT22;10402;49.012;8.370;2023-07-20T03:46:19;20.40;57.60
20487;DHT22;10402;49.012;8.370;2023-07-20T03:48:45;20.40;57.60
20487;DHT22;10402;49.012;8.370;2023-07-20T03:51:11;20.30;57.50
20487;DHT22;10402;49.012;8.370;2023-07-20T03:53:36;20.30;57.60
20487;DHT22;10402;49.012;8.370;2023-07-20T03:56:02;20.30;57.70
20487;DHT22;10402;49.012;8.370;2023-07-20T03:58:27;20.30;57.90
20487;DHT22;10402;49.012;8.370;2023-07-20T04:00:53;20.20;58.00
20487;DHT22;10402;49.012;8.370;2023-07-20T04:03:19;20.20;58.10
20487;DHT22;10402;49.012;8.370;2023-07-20T04:05:45;20.20;58.20
20487;DHT22;10402;49.012;8.370;2023-07-20T04:08:11;20.20;58.30
20487;DHT22;10402;49.012;8.370;2023-07-20T04:10:37;20.10;58.40
20487;DHT22;10402;49.012;8.370;2023-07-20T04:13:03;20.20;58.50
20487;DHT22;10402;49.012;8.370;2023-07-20T04:15:29;20.10;58.60
20487;DHT22;10402;49.012;8.370;2023-07-20T04:17:55;20.10;58.70
20487;DHT22;10402;49.012;8.370;2023-07-20T04:20:22;20.10;58.70
20487;DHT22;10402;49.012;8.370;2023-07-20T04:22:51;20.10;58.80
20487;DHT22;10402;49.012;8.370;2023-07-20T04:25:18;20.10;58.90
20487;DHT22;10402;49.012;8.370;2023-07-20T04:27:43;20.10;59.00
20487;DHT22;10402;49.012;8.370;2023-07-20T04:30:10;20.10;58.90
20487;DHT22;10402;49.012;8.370;2023-07-20T04:32:38;20.10;59.00
20487;DHT22;10402;49.012;8.370;2023-07-20T04:35:07;20.10;59.00
20487;DHT22;10402;49.012;8.370;2023-07-20T04:37:33;20.10;59.10
20487;DHT22;10402;49.012;8.370;2023-07-20T04:39:59;20.10;59.00
20487;DHT22;10402;49.012;8.370;2023-07-20T04:42:24;20.20;59.00
20487;DHT22;10402;49.012;8.370;2023-07-20T04:44:50;20.20;59.00
20487;DHT22;10402;49.012;8.370;2023-07-20T04:47:15;20.20;59.00
20487;DHT22;10402;49.012;8.370;2023-07-20T04:49:41;20.20;59.10
20487;DHT22;10402;49.012;8.370;2023-07-20T04:52:07;20.20;59.10
20487;DHT22;10402;49.012;8.370;2023-07-20T04:54:33;20.20;59.10
20487;DHT22;10402;49.012;8.370;2023-07-20T04:56:58;20.20;59.00
20487;DHT22;10402;49.012;8.370;2023-07-20T04:59:24;20.20;59.00
20487;DHT22;10402;49.012;8.370;2023-07-20T05:01:49;20.10;59.00
20487;DHT22;10402;49.012;8.370;2023-07-20T05:04:15;20.10;59.20
20487;DHT22;10402;49.012;8.370;2023-07-20T05:06:40;20.10;59.30
20487;DHT22;10402;49.012;8.370;2023-07-20T05:09:06;20.20;59.30
20487;DHT22;10402;49.012;8.370;2023-07-20T05:11:33;20.20;59.30
20487;DHT22;10402;49.012;8.370;2023-07-20T05:13:59;20.20;59.40
20487;DHT22;10402;49.012;8.370;2023-07-20T05:16:25;20.20;59.40
20487;DHT22;10402;49.012;8.370;2023-07-20T05:18:50;20.20;59.40
20487;DHT22;10402;49.012;8.370;2023-07-20T05:21:16;20.30;59.40
20487;DHT22;10402;49.012;8.370;2023-07-20T05:23:42;20.30;59.30
20487;DHT22;10402;49.012;8.370;2023-07-20T05:26:08;20.40;59.30
20487;DHT22;10402;49.012;8.370;2023-07-20T05:28:33;20.40;59.30
20487;DHT22;10402;49.012;8.370;2023-07-20T05:30:59;20.30;59.30
20487;DHT22;10402;49.012;8.370;2023-07-20T05:33:25;20.30;59.40
20487;DHT22;10402;49.012;8.370;2023-07-20T05:35:50;20.20;59.50
20487;DHT22;10402;49.012;8.370;2023-07-20T05:38:16;20.20;59.60
20487;DHT22;10402;49.012;8.370;2023-07-20T05:40:42;20.30;59.80
20487;DHT22;10402;49.012;8.370;2023-07-20T05:43:10;20.30;59.70
20487;DHT22;10402;49.012;8.370;2023-07-20T05:45:36;20.30;59.80
20487;DHT22;10402;49.012;8.370;2023-07-20T05:48:02;20.30;59.80
20487;DHT22;10402;49.012;8.370;2023-07-20T05:50:28;20.30;59.70
20487;DHT22;10402;49.012;8.370;2023-07-20T05:52:54;20.40;59.80
20487;DHT22;10402;49.012;8.370;2023-07-20T05:55:20;20.40;59.80
20487;DHT22;10402;49.012;8.370;2023-07-20T05:57:46;20.40;59.80
20487;DHT22;10402;49.012;8.370;2023-07-20T06:00:13;20.40;59.80
20487;DHT22;10402;49.012;8.370;2023-07-20T06:02:39;20.40;60.00
20487;DHT22;10402;49.012;8.370;2023-07-20T06:05:06;20.50;60.00
20487;DHT22;10402;49.012;8.370;2023-07-20T06:07:36;20.50;60.00
20487;DHT22;10402;49.012;8.370;2023-07-20T06:10:01;20.50;60.10
20487;DHT22;10402;49.012;8.370;2023-07-20T06:12:27;20.50;60.00
20487;DHT22;10402;49.012;8.370;2023-07-20T06:14:53;20.50;60.00
20487;DHT22;10402;49.012;8.370;2023-07-20T06:17:19;20.50;60.00
20487;DHT22;10402;49.012;8.370;2023-07-20T06:19:44;20.40;60.00
20487;DHT22;10402;49.012;8.370;2023-07-20T06:22:10;20.50;60.00
20487;DHT22;10402;49.012;8.370;2023-07-20T06:24:35;20.60;60.00
20487;DHT22;10402;49.012;8.370;2023-07-20T06:27:01;20.70;59.90
20487;DHT22;10402;49.012;8.370;2023-07-20T06:29:26;20.70;59.70
20487;DHT22;10402;49.012;8.370;2023-07-20T06:31:52;20.80;60.30
20487;DHT22;10402;49.012;8.370;2023-07-20T06:34:17;20.80;59.60
20487;DHT22;10402;49.012;8.370;2023-07-20T06:36:43;20.90;59.40
20487;DHT22;10402;49.012;8.370;2023-07-20T06:39:08;20.90;59.30
20487;DHT22;10402;49.012;8.370;2023-07-20T06:41:34;21.00;59.40
20487;DHT22;10402;49.012;8.370;2023-07-20T06:43:59;20.90;59.30
20487;DHT22;10402;49.012;8.370;2023-07-20T06:46:25;21.00;59.40
20487;DHT22;10402;49.012;8.370;2023-07-20T06:48:51;21.10;59.20
20487;DHT22;10402;49.012;8.370;2023-07-20T06:51:17;21.20;59.10
20487;DHT22;10402;49.012;8.370;2023-07-20T06:53:43;21.20;59.10
20487;DHT22;10402;49.012;8.370;2023-07-20T06:56:09;21.20;59.00
20487;DHT22;10402;49.012;8.370;2023-07-20T06:58:34;21.20;59.10
20487;DHT22;10402;49.012;8.370;2023-07-20T07:01:07;21.10;59.10
20487;DHT22;10402;49.012;8.370;2023-07-20T07:03:33;21.20;59.30
20487;DHT22;10402;49.012;8.370;2023-07-20T07:05:59;21.20;59.30
20487;DHT22;10402;49.012;8.370;2023-07-20T07:08:25;21.20;59.40
20487;DHT22;10402;49.012;8.370;2023-07-20T07:10:51;21.20;59.40
20487;DHT22;10402;49.012;8.370;2023-07-20T07:13:17;21.20;59.50
20487;DHT22;10402;49.012;8.370;2023-07-20T07:15:43;21.20;59.50
20487;DHT22;10402;49.012;8.370;2023-07-20T07:18:08;21.20;59.60
20487;DHT22;10402;49.012;8.370;2023-07-20T07:20:34;21.20;59.50
20487;DHT22;10402;49.012;8.370;2023-07-20T07:22:59;21.30;59.40
20487;DHT22;10402;49.012;8.370;2023-07-20T07:25:26;21.30;59.30
20487;DHT22;10402;49.012;8.370;2023-07-20T07:27:53;21.30;59.20
20487;DHT22;10402;49.012;8.370;2023-07-20T07:30:19;21.30;59.40
20487;DHT22;10402;49.012;8.370;2023-07-20T07:32:45;21.40;59.40
20487;DHT22;10402;49.012;8.370;2023-07-20T07:35:11;21.40;59.40
20487;DHT22;10402;49.012;8.370;2023-07-20T07:37:37;21.50;59.40
20487;DHT22;10402;49.012;8.370;2023-07-20T07:40:03;21.50;59.30
20487;DHT22;10402;49.012;8.370;2023-07-20T07:42:29;21.50;59.20
20487;DHT22;10402;49.012;8.370;2023-07-20T07:44:55;21.50;59.30
20487;DHT22;10402;49.012;8.370;2023-07-20T07:47:20;21.50;59.20
20487;DHT22;10402;49.012;8.370;2023-07-20T07:49:46;21.50;59.10
20487;DHT22;10402;49.012;8.370;2023-07-20T07:52:11;21.50;59.00
20487;DHT22;10402;49.012;8.370;2023-07-20T07:54:37;21.50;58.90
20487;DHT22;10402;49.012;8.370;2023-07-20T07:57:02;21.70;59.00
20487;DHT22;10402;49.012;8.370;2023-07-20T07:59:28;21.70;58.80
20487;DHT22;10402;49.012;8.370;2023-07-20T08:01:54;21.80;58.80
20487;DHT22;10402;49.012;8.370;2023-07-20T08:04:19;21.90;58.90
20487;DHT22;10402;49.012;8.370;2023-07-20T08:06:45;21.90;58.70
20487;DHT22;10402;49.012;8.370;2023-07-20T08:09:10;22.00;58.60
20487;DHT22;10402;49.012;8.370;2023-07-20T08:11:36;22.00;58.50
20487;DHT22;10402;49.012;8.370;2023-07-20T08:14:04;22.10;58.30
20487;DHT22;10402;49.012;8.370;2023-07-20T08:16:29;22.20;58.30
20487;DHT22;10402;49.012;8.370;2023-07-20T08:18:55;22.20;58.10
20487;DHT22;10402;49.012;8.370;2023-07-20T08:21:20;22.30;58.10
20487;DHT22;10402;49.012;8.370;2023-07-20T08:23:46;22.40;58.00
20487;DHT22;10402;49.012;8.370;2023-07-20T08:26:11;22.40;57.90
20487;DHT22;10402;49.012;8.370;2023-07-20T08:28:37;22.40;57.70
20487;DHT22;10402;49.012;8.370;2023-07-20T08:31:05;22.50;57.70
20487;DHT22;10402;49.012;8.370;2023-07-20T08:33:31;22.50;57.70
20487;DHT22;10402;49.012;8.370;2023-07-20T08:35:59;22.60;57.60
20487;DHT22;10402;49.012;8.370;2023-07-20T08:38:24;22.70;57.60
20487;DHT22;10402;49.012;8.370;2023-07-20T08:40:51;22.80;57.40
20487;DHT22;10402;49.012;8.370;2023-07-20T08:43:19;22.90;57.10
20487;DHT22;10402;49.012;8.370;2023-07-20T08:45:46;22.90;56.80
20487;DHT22;10402;49.012;8.370;2023-07-20T08:48:12;22.90;56.60
20487;DHT22;10402;49.012;8.370;2023-07-20T08:50:38;22.90;56.60
20487;DHT22;10402;49.012;8.370;2023-07-20T08:53:04;22.90;56.50
20487;DHT22;10402;49.012;8.370;2023-07-20T08:55:31;22.90;56.40
20487;DHT22;10402;49.012;8.370;2023-07-20T08:57:59;22.90;56.30
20487;DHT22;10402;49.012;8.370;2023-07-20T09:00:25;22.90;56.10
20487;DHT22;10402;49.012;8.370;2023-07-20T09:02:53;22.90;56.20
20487;DHT22;10402;49.012;8.370;2023-07-20T09:05:19;22.80;56.00
20487;DHT22;10402;49.012;8.370;2023-07-20T09:07:45;23.00;56.00
20487;DHT22;10402;49.012;8.370;2023-07-20T09:10:11;23.00;55.60
20487;DHT22;10402;49.012;8.370;2023-07-20T09:12:39;23.10;55.40
20487;DHT22;10402;49.012;8.370;2023-07-20T09:15:06;23.20;55.00
20487;DHT22;10402;49.012;8.370;2023-07-20T09:17:32;23.30;55.00
20487;DHT22;10402;49.012;8.370;2023-07-20T09:19:57;23.40;55.10
20487;DHT22;10402;49.012;8.370;2023-07-20T09:22:30;23.40;54.70
20487;DHT22;10402;49.012;8.370;2023-07-20T09:24:56;23.50;54.40
20487;DHT22;10402;49.012;8.370;2023-07-20T09:27:21;23.50;54.30
20487;DHT22;10402;49.012;8.370;2023-07-20T09:29:53;23.60;54.10
20487;DHT22;10402;49.012;8.370;2023-07-20T09:32:19;23.70;53.90
20487;DHT22;10402;49.012;8.370;2023-07-20T09:34:46;23.70;53.80
20487;DHT22;10402;49.012;8.370;2023-07-20T09:37:12;23.80;53.80
20487;DHT22;10402;49.012;8.370;2023-07-20T09:39:47;23.80;53.80
20487;DHT22;10402;49.012;8.370;2023-07-20T09:42:13;23.90;53.60
20487;DHT22;10402;49.012;8.370;2023-07-20T09:44:39;24.00;53.30
20487;DHT22;10402;49.012;8.370;2023-07-20T09:47:06;24.00;53.00
20487;DHT22;10402;49.012;8.370;2023-07-20T09:49:32;24.00;52.80
20487;DHT22;10402;49.012;8.370;2023-07-20T09:51:58;24.10;53.10
20487;DHT22;10402;49.012;8.370;2023-07-20T09:54:26;24.10;52.20
20487;DHT22;10402;49.012;8.370;2023-07-20T09:56:54;24.10;51.70
20487;DHT22;10402;49.012;8.370;2023-07-20T09:59:20;24.00;51.80
20487;DHT22;10402;49.012;8.370;2023-07-20T10:01:46;24.00;52.10
20487;DHT22;10402;49.012;8.370;2023-07-20T10:04:14;24.10;52.10
20487;DHT22;10402;49.012;8.370;2023-07-20T10:06:42;24.20;51.90
20487;DHT22;10402;49.012;8.370;2023-07-20T10:09:10;24.30;51.70
20487;DHT22;10402;49.012;8.370;2023-07-20T10:11:40;24.30;51.60
20487;DHT22;10402;49.012;8.370;2023-07-20T10:14:08;24.30;51.70
20487;DHT22;10402;49.012;8.370;2023-07-20T10:16:51;24.30;51.20
20487;DHT22;10402;49.012;8.370;2023-07-20T10:19:42;24.30;50.70
20487;DHT22;10402;49.012;8.370;2023-07-20T10:22:15;24.30;50.70
20487;DHT22;10402;49.012;8.370;2023-07-20T10:24:45;24.30;50.50
20487;DHT22;10402;49.012;8.370;2023-07-20T10:27:11;24.30;50.20
20487;DHT22;10402;49.012;8.370;2023-07-20T10:29:37;24.30;50.40
20487;DHT22;10402;49.012;8.370;2023-07-20T10:32:04;24.40;50.20
20487;DHT22;10402;49.012;8.370;2023-07-20T10:34:30;24.50;50.00
20487;DHT22;10402;49.012;8.370;2023-07-20T10:36:55;24.60;50.10
20487;DHT22;10402;49.012;8.370;2023-07-20T10:39:24;24.60;49.60
20487;DHT22;10402;49.012;8.370;2023-07-20T10:42:00;24.70;49.80
20487;DHT22;10402;49.012;8.370;2023-07-20T10:44:26;24.70;49.70
20487;DHT22;10402;49.012;8.370;2023-07-20T10:47:02;24.80;49.70
20487;DHT22;10402;49.012;8.370;2023-07-20T10:49:28;24.80;49.30
20487;DHT22;10402;49.012;8.370;2023-07-20T10:51:58;24.80;49.70
20487;DHT22;10402;49.012;8.370;2023-07-20T10:56:52;24.90;49.10
20487;DHT22;10402;49.012;8.370;2023-07-20T11:01:59;25.00;49.10
20487;DHT22;10402;49.012;8.370;2023-07-20T11:04:38;25.00;49.10
20487;DHT22;10402;49.012;8.370;2023-07-20T11:07:05;25.00;48.90
20487;DHT22;10402;49.012;8.370;2023-07-20T11:09:34;25.00;48.60
20487;DHT22;10402;49.012;8.370;2023-07-20T11:12:14;25.00;48.30
20487;DHT22;10402;49.012;8.370;2023-07-20T11:14:53;25.00;48.20
20487;DHT22;10402;49.012;8.370;2023-07-20T11:17:19;25.00;48.30
20487;DHT22;10402;49.012;8.370;2023-07-20T11:19:55;25.00;48.30
20487;DHT22;10402;49.012;8.370;2023-07-20T11:22:22;25.10;47.80
20487;DHT22;10402;49.012;8.370;2023-07-20T11:24:47;25.00;47.70
20487;DHT22;10402;49.012;8.370;2023-07-20T11:27:14;25.00;47.90
20487;DHT22;10402;49.012;8.370;2023-07-20T11:29:40;25.00;47.50
20487;DHT22;10402;49.012;8.370;2023-07-20T11:32:06;25.00;47.00
20487;DHT22;10402;49.012;8.370;2023-07-20T11:34:33;25.00;47.20
20487;DHT22;10402;49.012;8.370;2023-07-20T11:36:59;25.10;47.00
20487;DHT22;10402;49.012;8.370;2023-07-20T11:39:25;25.10;47.00
20487;DHT22;10402;49.012;8.370;2023-07-20T11:41:55;25.10;47.00
20487;DHT22;10402;49.012;8.370;2023-07-20T11:44:23;25.10;47.00
20487;DHT22;10402;49.012;8.370;2023-07-20T11:47:13;25.10;46.70
20487;DHT22;10402;49.012;8.370;2023-07-20T11:49:43;25.20;46.90
20487;DHT22;10402;49.012;8.370;2023-07-20T11:52:15;25.30;46.90
20487;DHT22;10402;49.012;8.370;2023-07-20T11:54:42;25.20;46.30
20487;DHT22;10402;49.012;8.370;2023-07-20T11:57:16;25.30;46.10
20487;DHT22;10402;49.012;8.370;2023-07-20T12:00:00;25.20;46.30
20487;DHT22;10402;49.012;8.370;2023-07-20T12:02:28;25.30;46.40
20487;DHT22;10402;49.012;8.370;2023-07-20T12:04:57;25.20;46.50
20487;DHT22;10402;49.012;8.370;2023-07-20T12:07:28;25.20;46.50
20487;DHT22;10402;49.012;8.370;2023-07-20T12:12:34;25.10;45.90
20487;DHT22;10402;49.012;8.370;2023-07-20T12:18:00;25.00;46.20
20487;DHT22;10402;49.012;8.370;2023-07-20T12:22:52;25.10;46.00
20487;DHT22;10402;49.012;8.370;2023-07-20T12:25:17;25.10;46.00
20487;DHT22;10402;49.012;8.370;2023-07-20T12:27:47;25.20;45.80
20487;DHT22;10402;49.012;8.370;2023-07-20T12:30:13;25.30;45.50
20487;DHT22;10402;49.012;8.370;2023-07-20T12:32:40;25.40;45.20
20487;DHT22;10402;49.012;8.370;2023-07-20T12:35:06;25.40;45.10
20487;DHT22;10402;49.012;8.370;2023-07-20T12:37:32;25.50;45.00
20487;DHT22;10402;49.012;8.370;2023-07-20T12:39:58;25.60;44.80
20487;DHT22;10402;49.012;8.370;2023-07-20T12:42:23;25.70;44.80
20487;DHT22;10402;49.012;8.370;2023-07-20T12:44:49;25.70;44.50
20487;DHT22;10402;49.012;8.370;2023-07-20T12:47:15;25.70;44.00
20487;DHT22;10402;49.012;8.370;2023-07-20T12:49:41;25.70;44.20
20487;DHT22;10402;49.012;8.370;2023-07-20T12:52:10;25.60;43.90
20487;DHT22;10402;49.012;8.370;2023-07-20T12:54:36;25.60;44.10
20487;DHT22;10402;49.012;8.370;2023-07-20T12:57:02;25.70;43.70
20487;DHT22;10402;49.012;8.370;2023-07-20T12:59:29;25.60;43.70
20487;DHT22;10402;49.012;8.370;2023-07-20T13:01:54;25.70;43.50
20487;DHT22;10402;49.012;8.370;2023-07-20T13:04:20;25.80;43.50
20487;DHT22;10402;49.012;8.370;2023-07-20T13:06:45;25.90;43.40
20487;DHT22;10402;49.012;8.370;2023-07-20T13:09:11;25.90;43.40
20487;DHT22;10402;49.012;8.370;2023-07-20T13:11:36;25.90;42.50
20487;DHT22;10402;49.012;8.370;2023-07-20T13:14:02;25.80;42.10
20487;DHT22;10402;49.012;8.370;2023-07-20T13:16:27;25.70;42.70
20487;DHT22;10402;49.012;8.370;2023-07-20T13:18:53;25.80;42.80
20487;DHT22;10402;49.012;8.370;2023-07-20T13:21:18;25.80;42.00
20487;DHT22;10402;49.012;8.370;2023-07-20T13:23:48;25.90;42.10
20487;DHT22;10402;49.012;8.370;2023-07-20T13:26:14;25.90;42.10
20487;DHT22;10402;49.012;8.370;2023-07-20T13:28:40;25.90;42.00
20487;DHT22;10402;49.012;8.370;2023-07-20T13:31:05;25.90;41.90
20487;DHT22;10402;49.012;8.370;2023-07-20T13:33:31;26.00;41.80
20487;DHT22;10402;49.012;8.370;2023-07-20T13:35:56;26.00;41.80
20487;DHT22;10402;49.012;8.370;2023-07-20T13:38:22;26.10;41.60
20487;DHT22;10402;49.012;8.370;2023-07-20T13:40:47;26.10;40.50
20487;DHT22;10402;49.012;8.370;2023-07-20T13:43:13;26.20;40.60
20487;DHT22;10402;49.012;8.370;2023-07-20T13:45:38;26.20;40.80
20487;DHT22;10402;49.012;8.370;2023-07-20T13:48:04;26.20;40.60
20487;DHT22;10402;49.012;8.370;2023-07-20T13:50:30;26.20;40.50
20487;DHT22;10402;49.012;8.370;2023-07-20T13:52:55;26.30;40.60
20487;DHT22;10402;49.012;8.370;2023-07-20T13:55:21;26.30;40.20
20487;DHT22;10402;49.012;8.370;2023-07-20T13:57:47;26.30;40.50
20487;DHT22;10402;49.012;8.370;2023-07-20T14:00:13;26.30;40.40
20487;DHT22;10402;49.012;8.370;2023-07-20T14:02:39;26.40;40.50
20487;DHT22;10402;49.012;8.370;2023-07-20T14:05:04;26.40;40.20
20487;DHT22;10402;49.012;8.370;2023-07-20T14:07:30;26.40;39.80
20487;DHT22;10402;49.012;8.370;2023-07-20T14:09:55;26.40;40.00
20487;DHT22;10402;49.012;8.370;2023-07-20T14:12:21;26.40;39.80
20487;DHT22;10402;49.012;8.370;2023-07-20T14:14:47;26.40;39.70
20487;DHT22;10402;49.012;8.370;2023-07-20T14:17:12;26.40;40.00
20487;DHT22;10402;49.012;8.370;2023-07-20T14:19:38;26.40;40.30
20487;DHT22;10402;49.012;8.370;2023-07-20T14:22:04;26.40;39.50
20487;DHT22;10402;49.012;8.370;2023-07-20T14:24:30;26.50;39.60
20487;DHT22;10402;49.012;8.370;2023-07-20T14:26:55;26.50;39.20
20487;DHT22;10402;49.012;8.370;2023-07-20T14:29:21;26.60;39.30
20487;DHT22;10402;49.012;8.370;2023-07-20T14:31:47;26.60;39.10
20487;DHT22;10402;49.012;8.370;2023-07-20T14:34:16;26.60;39.30
20487;DHT22;10402;49.012;8.370;2023-07-20T14:36:42;26.60;39.00
20487;DHT22;10402;49.012;8.370;2023-07-20T14:39:07;26.60;38.70
20487;DHT22;10402;49.012;8.370;2023-07-20T14:41:33;26.60;38.90
20487;DHT22;10402;49.012;8.370;2023-07-20T14:43:58;26.70;39.10
20487;DHT22;10402;49.012;8.370;2023-07-20T14:46:24;26.60;38.60
20487;DHT22;10402;49.012;8.370;2023-07-20T14:48:49;26.60;38.50
20487;DHT22;10402;49.012;8.370;2023-07-20T14:51:17;26.50;38.60
20487;DHT22;10402;49.012;8.370;2023-07-20T14:53:42;26.60;38.70
20487;DHT22;10402;49.012;8.370;2023-07-20T14:56:08;26.60;38.70
20487;DHT22;10402;49.012;8.370;2023-07-20T14:58:34;26.70;38.80
20487;DHT22;10402;49.012;8.370;2023-07-20T15:01:00;26.70;38.70
20487;DHT22;10402;49.012;8.370;2023-07-20T15:03:25;26.70;38.80
20487;DHT22;10402;49.012;8.370;2023-07-20T15:05:51;26.70;38.50
20487;DHT22;10402;49.012;8.370;2023-07-20T15:08:17;26.80;38.30
20487;DHT22;10402;49.012;8.370;2023-07-20T15:10:44;26.80;38.20
20487;DHT22;10402;49.012;8.370;2023-07-20T15:13:12;26.80;38.30
20487;DHT22;10402;49.012;8.370;2023-07-20T15:15:37;26.80;38.00
20487;DHT22;10402;49.012;8.370;2023-07-20T15:18:03;26.90;37.90
20487;DHT22;10402;49.012;8.370;2023-07-20T15:20:28;26.80;37.80
20487;DHT22;10402;49.012;8.370;2023-07-20T15:22:57;26.80;37.70
20487;DHT22;10402;49.012;8.370;2023-07-20T15:25:22;26.90;37.80
20487;DHT22;10402;49.012;8.370;2023-07-20T15:27:48;26.90;37.50
20487;DHT22;10402;49.012;8.370;2023-07-20T15:30:14;26.90;37.00
20487;DHT22;10402;49.012;8.370;2023-07-20T15:32:40;26.90;37.10
20487;DHT22;10402;49.012;8.370;2023-07-20T15:35:09;26.80;37.00
20487;DHT22;10402;49.012;8.370;2023-07-20T15:37:35;26.90;37.20
20487;DHT22;10402;49.012;8.370;2023-07-20T15:40:02;26.90;37.30
20487;DHT22;10402;49.012;8.370;2023-07-20T15:42:30;26.90;37.10
20487;DHT22;10402;49.012;8.370;2023-07-20T15:44:56;27.00;36.80